Terminal Aerodrome Forecast
Issued by NWS

Home | Current Version | Previous Version | Text Only | Print | Product List | Glossary On
Versions: 1 2 3 4 5 6 7 8 9 10 11 12 13
000
FTUS43 KMQT 171136
TAFCMX
TAF
KCMX 171136Z 1712/1812 VRB03KT 6SM BR BKN130
     FM171400 VRB03KT P6SM SCT150
     FM180300 26008KT P6SM SCT080=

USA.gov is the U.S. government's official web portal to all federal, state and local government web resources and services.